createdAt,value
2022-08-27T00:00:20.696Z,505.00
2022-08-27T00:01:16.108Z,490.00
2022-08-27T00:02:11.867Z,491.00
2022-08-27T00:03:07.034Z,494.00
2022-08-27T00:04:02.812Z,489.00
2022-08-27T00:04:57.962Z,489.00
2022-08-27T00:05:53.393Z,490.00
2022-08-27T00:06:49.010Z,492.00
2022-08-27T00:07:44.172Z,490.00
2022-08-27T00:08:39.331Z,491.00
2022-08-27T00:09:35.847Z,494.00
2022-08-27T00:10:31.187Z,484.00
2022-08-27T00:11:26.907Z,490.00
2022-08-27T00:12:22.050Z,493.00
2022-08-27T00:13:17.253Z,487.00
2022-08-27T00:14:13.105Z,502.00
2022-08-27T00:15:08.289Z,492.00
2022-08-27T00:16:04.061Z,495.00
2022-08-27T00:16:59.201Z,496.00
2022-08-27T00:17:54.529Z,490.00
2022-08-27T00:18:50.365Z,500.00
2022-08-27T00:19:45.632Z,498.00
2022-08-27T00:20:40.889Z,492.00
2022-08-27T00:21:37.309Z,490.00
2022-08-27T00:22:32.619Z,490.00
2022-08-27T00:23:27.748Z,491.00
2022-08-27T00:24:22.788Z,496.00
2022-08-27T00:25:17.804Z,499.00
2022-08-27T00:26:12.807Z,497.00
2022-08-27T00:27:07.874Z,505.00
2022-08-27T00:28:03.008Z,506.00
2022-08-27T00:28:57.919Z,513.00
2022-08-27T00:29:52.924Z,505.00
2022-08-27T00:30:47.976Z,500.00
2022-08-27T00:31:43.080Z,510.00
2022-08-27T00:32:38.066Z,510.00
2022-08-27T00:33:33.277Z,507.00
2022-08-27T00:34:28.127Z,515.00
2022-08-27T00:35:23.117Z,522.00
2022-08-27T00:36:18.108Z,511.00
2022-08-27T00:37:16.434Z,501.00
2022-08-27T00:38:11.750Z,502.00
2022-08-27T00:39:06.674Z,512.00
2022-08-27T00:40:01.710Z,499.00
2022-08-27T00:40:56.834Z,504.00
2022-08-27T00:41:52.063Z,503.00
2022-08-27T00:42:47.168Z,501.00
2022-08-27T00:43:42.153Z,502.00
2022-08-27T00:44:37.328Z,510.00
2022-08-27T00:45:32.336Z,502.00
2022-08-27T00:46:27.343Z,501.00
2022-08-27T00:47:22.371Z,496.00
2022-08-27T00:48:18.787Z,503.00
2022-08-27T00:49:12.651Z,500.00
2022-08-27T00:50:07.766Z,504.00
2022-08-27T00:51:02.840Z,500.00
2022-08-27T00:51:57.950Z,498.00
2022-08-27T00:52:52.988Z,502.00
2022-08-27T00:53:48.002Z,502.00
2022-08-27T00:54:46.902Z,498.00
2022-08-27T00:55:41.953Z,504.00
2022-08-27T00:56:37.056Z,506.00
2022-08-27T00:57:32.150Z,497.00
2022-08-27T00:58:27.259Z,501.00
2022-08-27T00:59:22.361Z,498.00
2022-08-27T01:00:17.469Z,506.00
2022-08-27T01:01:12.595Z,493.00
2022-08-27T01:02:07.611Z,494.00
2022-08-27T01:03:02.648Z,501.00
2022-08-27T01:03:57.718Z,492.00
2022-08-27T01:04:52.867Z,506.00
2022-08-27T01:05:47.919Z,492.00
2022-08-27T01:06:43.038Z,483.00
2022-08-27T01:07:38.116Z,538.00
2022-08-27T01:08:33.106Z,536.00
2022-08-27T01:09:28.131Z,534.00
2022-08-27T01:10:23.159Z,537.00
2022-08-27T01:11:18.217Z,544.00
2022-08-27T01:12:13.241Z,530.00
2022-08-27T01:13:08.224Z,544.00
2022-08-27T01:14:03.283Z,531.00
2022-08-27T01:14:58.336Z,538.00
2022-08-27T01:15:53.415Z,534.00
2022-08-27T01:16:48.401Z,527.00
2022-08-27T01:17:43.444Z,518.00
2022-08-27T01:18:38.470Z,517.00
2022-08-27T01:19:34.336Z,517.00
2022-08-27T01:20:29.478Z,516.00
2022-08-27T01:21:24.635Z,520.00
2022-08-27T01:22:23.098Z,522.00
2022-08-27T01:23:15.763Z,526.00
2022-08-27T01:24:11.630Z,521.00
2022-08-27T01:25:07.003Z,521.00
2022-08-27T01:26:02.291Z,525.00
2022-08-27T01:26:58.027Z,529.00
2022-08-27T01:27:53.311Z,531.00
2022-08-27T01:28:48.460Z,524.00
2022-08-27T01:29:45.133Z,528.00
2022-08-27T01:30:40.315Z,523.00
2022-08-27T01:31:36.190Z,527.00
2022-08-27T01:32:31.305Z,533.00
2022-08-27T01:33:26.485Z,537.00
2022-08-27T01:34:22.330Z,528.00
2022-08-27T01:35:17.697Z,540.00
2022-08-27T01:36:13.411Z,536.00
2022-08-27T01:37:08.676Z,535.00
2022-08-27T01:38:03.949Z,535.00
2022-08-27T01:39:00.765Z,535.00
2022-08-27T01:39:55.051Z,534.00
2022-08-27T01:40:50.186Z,534.00
2022-08-27T01:41:46.812Z,526.00
2022-08-27T01:42:43.051Z,528.00
2022-08-27T01:43:37.831Z,525.00
2022-08-27T01:44:33.097Z,531.00
2022-08-27T01:45:28.412Z,522.00
2022-08-27T01:46:24.112Z,526.00
2022-08-27T01:47:19.288Z,521.00
2022-08-27T01:48:15.152Z,525.00
2022-08-27T01:49:10.416Z,532.00
2022-08-27T01:50:05.710Z,538.00
2022-08-27T01:51:01.462Z,530.00
2022-08-27T01:51:56.629Z,524.00
2022-08-27T01:52:51.789Z,527.00
2022-08-27T01:53:48.289Z,533.00
2022-08-27T01:54:43.615Z,527.00
2022-08-27T01:55:39.489Z,535.00
2022-08-27T01:56:34.696Z,533.00
2022-08-27T01:57:29.875Z,535.00
2022-08-27T01:58:25.723Z,534.00
2022-08-27T01:59:20.905Z,531.00
2022-08-27T02:00:16.774Z,528.00
2022-08-27T02:01:12.082Z,540.00
2022-08-27T02:02:07.454Z,534.00
2022-08-27T02:03:03.104Z,530.00
2022-08-27T02:03:58.292Z,536.00
2022-08-27T02:04:53.571Z,541.00
2022-08-27T02:05:49.747Z,544.00
2022-08-27T02:06:44.917Z,552.00
2022-08-27T02:07:40.631Z,536.00
2022-08-27T02:08:35.749Z,542.00
2022-08-27T02:09:30.974Z,541.00
2022-08-27T02:10:26.815Z,542.00
2022-08-27T02:11:22.044Z,545.00
2022-08-27T02:12:17.245Z,536.00
2022-08-27T02:13:12.349Z,550.00
2022-08-27T02:14:12.786Z,552.00
2022-08-27T02:15:04.280Z,546.00
2022-08-27T02:15:58.547Z,535.00
2022-08-27T02:16:53.576Z,528.00
2022-08-27T02:17:48.556Z,539.00
2022-08-27T02:18:43.547Z,530.00
2022-08-27T02:19:38.667Z,536.00
2022-08-27T02:20:33.770Z,529.00
2022-08-27T02:21:28.788Z,539.00
2022-08-27T02:22:23.757Z,544.00
2022-08-27T02:23:23.998Z,544.00
2022-08-27T02:24:19.215Z,538.00
2022-08-27T02:25:14.493Z,548.00
2022-08-27T02:26:10.270Z,545.00
2022-08-27T02:27:05.548Z,538.00
2022-08-27T02:28:00.770Z,548.00
2022-08-27T02:28:57.108Z,540.00
2022-08-27T02:29:52.296Z,539.00
2022-08-27T02:30:47.517Z,534.00
2022-08-27T02:31:42.710Z,536.00
2022-08-27T02:32:37.816Z,540.00
2022-08-27T02:33:32.924Z,535.00
2022-08-27T02:34:28.723Z,530.00
2022-08-27T02:35:23.912Z,533.00
2022-08-27T02:36:19.280Z,528.00
2022-08-27T02:37:14.380Z,538.00
2022-08-27T02:38:10.929Z,538.00
2022-08-27T02:39:06.150Z,535.00
2022-08-27T02:40:01.224Z,539.00
2022-08-27T02:41:00.424Z,535.00
2022-08-27T02:41:55.683Z,539.00
2022-08-27T02:42:50.864Z,538.00
2022-08-27T02:43:46.162Z,543.00
2022-08-27T02:44:41.163Z,538.00
2022-08-27T02:45:36.278Z,540.00
2022-08-27T02:46:31.412Z,539.00
2022-08-27T02:47:26.414Z,543.00
2022-08-27T02:48:21.461Z,543.00
2022-08-27T02:49:16.562Z,546.00
2022-08-27T02:50:11.684Z,540.00
2022-08-27T02:51:06.931Z,543.00
2022-08-27T02:52:01.906Z,543.00
2022-08-27T02:52:57.012Z,545.00
2022-08-27T02:53:52.112Z,552.00
2022-08-27T02:54:47.404Z,554.00
2022-08-27T02:55:42.351Z,551.00
2022-08-27T02:56:37.567Z,548.00
2022-08-27T02:57:36.447Z,540.00
2022-08-27T02:58:28.750Z,547.00
2022-08-27T02:59:24.079Z,538.00
2022-08-27T03:00:19.229Z,537.00
2022-08-27T03:01:14.297Z,534.00
2022-08-27T03:02:09.461Z,546.00
2022-08-27T03:03:04.604Z,554.00
2022-08-27T03:03:59.839Z,556.00
2022-08-27T03:04:54.929Z,546.00
2022-08-27T03:05:50.156Z,555.00
2022-08-27T03:06:45.389Z,543.00
2022-08-27T03:07:40.481Z,546.00
2022-08-27T03:08:52.030Z,551.00
2022-08-27T03:09:33.135Z,542.00
2022-08-27T03:10:27.849Z,530.00
2022-08-27T03:11:23.058Z,543.00
2022-08-27T03:12:18.169Z,547.00
2022-08-27T03:13:13.970Z,541.00
2022-08-27T03:14:09.229Z,545.00
2022-08-27T03:15:05.024Z,546.00
2022-08-27T03:16:00.163Z,545.00
2022-08-27T03:16:55.455Z,544.00
2022-08-27T03:17:51.247Z,540.00
2022-08-27T03:18:46.503Z,537.00
2022-08-27T03:19:41.735Z,536.00
2022-08-27T03:20:37.967Z,551.00
2022-08-27T03:21:33.191Z,535.00
2022-08-27T03:22:28.981Z,540.00
2022-08-27T03:23:24.198Z,543.00
2022-08-27T03:24:19.324Z,538.00
2022-08-27T03:25:15.101Z,533.00
2022-08-27T03:26:10.347Z,541.00
2022-08-27T03:27:06.270Z,535.00
2022-08-27T03:28:01.368Z,533.00
2022-08-27T03:28:56.746Z,531.00
2022-08-27T03:29:52.541Z,526.00
2022-08-27T03:30:47.807Z,544.00
2022-08-27T03:31:43.174Z,545.00
2022-08-27T03:32:39.370Z,538.00
2022-08-27T03:33:34.640Z,533.00
2022-08-27T03:34:30.448Z,543.00
2022-08-27T03:35:25.639Z,547.00
2022-08-27T03:36:20.870Z,547.00
2022-08-27T03:37:16.544Z,545.00
2022-08-27T03:38:11.868Z,548.00
2022-08-27T03:39:07.577Z,545.00
2022-08-27T03:40:02.813Z,550.00
2022-08-27T03:40:58.047Z,544.00
2022-08-27T03:41:55.250Z,546.00
2022-08-27T03:42:48.976Z,552.00
2022-08-27T03:43:44.087Z,550.00
2022-08-27T03:44:40.538Z,545.00
2022-08-27T03:45:48.608Z,554.00
2022-08-27T03:46:32.660Z,550.00
2022-08-27T03:47:26.779Z,550.00
2022-08-27T03:48:21.883Z,550.00
2022-08-27T03:49:20.424Z,557.00
2022-08-27T03:50:12.885Z,545.00
2022-08-27T03:51:08.704Z,550.00
2022-08-27T03:52:03.909Z,583.00
2022-08-27T03:52:59.287Z,556.00
2022-08-27T03:53:54.964Z,553.00
2022-08-27T03:54:50.204Z,551.00
2022-08-27T03:55:45.298Z,552.00
2022-08-27T03:56:41.782Z,554.00
2022-08-27T03:57:37.056Z,567.00
2022-08-27T03:58:32.867Z,555.00
2022-08-27T03:59:27.944Z,562.00
2022-08-27T04:00:23.067Z,565.00
2022-08-27T04:01:18.883Z,556.00
2022-08-27T04:02:14.964Z,551.00
2022-08-27T04:03:09.907Z,546.00
2022-08-27T04:04:04.980Z,553.00
2022-08-27T04:05:00.257Z,552.00
2022-08-27T04:05:55.890Z,548.00
2022-08-27T04:06:51.009Z,548.00
2022-08-27T04:07:46.229Z,550.00
2022-08-27T04:08:41.458Z,555.00
2022-08-27T04:09:38.213Z,551.00
2022-08-27T04:10:34.943Z,559.00
2022-08-27T04:11:28.561Z,559.00
2022-08-27T04:12:24.365Z,553.00
2022-08-27T04:13:19.646Z,559.00
2022-08-27T04:14:19.963Z,560.00
2022-08-27T04:15:12.069Z,562.00
2022-08-27T04:16:06.403Z,560.00
2022-08-27T04:17:02.119Z,569.00
2022-08-27T04:17:57.400Z,572.00
2022-08-27T04:18:52.569Z,563.00
2022-08-27T04:19:48.422Z,558.00
2022-08-27T04:20:43.576Z,556.00
2022-08-27T04:21:39.469Z,560.00
2022-08-27T04:22:34.586Z,556.00
2022-08-27T04:23:29.946Z,561.00
2022-08-27T04:24:25.506Z,560.00
2022-08-27T04:25:20.645Z,562.00
2022-08-27T04:26:15.906Z,554.00
2022-08-27T04:27:11.137Z,562.00
2022-08-27T04:28:06.485Z,568.00
2022-08-27T04:29:01.819Z,550.00
2022-08-27T04:29:57.265Z,555.00
2022-08-27T04:30:52.585Z,553.00
2022-08-27T04:31:48.284Z,544.00
2022-08-27T04:32:43.733Z,560.00
2022-08-27T04:33:38.892Z,579.00
2022-08-27T04:34:34.153Z,556.00
2022-08-27T04:35:29.161Z,554.00
2022-08-27T04:36:24.255Z,551.00
2022-08-27T04:37:23.355Z,548.00
2022-08-27T04:38:14.392Z,546.00
2022-08-27T04:39:09.384Z,550.00
2022-08-27T04:40:04.655Z,544.00
2022-08-27T04:40:59.855Z,544.00
2022-08-27T04:41:55.096Z,551.00
2022-08-27T04:42:50.071Z,557.00
2022-08-27T04:43:45.192Z,548.00
2022-08-27T04:44:40.200Z,549.00
2022-08-27T04:45:35.380Z,549.00
2022-08-27T04:46:30.440Z,546.00
2022-08-27T04:47:25.459Z,551.00
2022-08-27T04:48:20.589Z,550.00
2022-08-27T04:49:15.567Z,549.00
2022-08-27T04:50:10.587Z,557.00
2022-08-27T04:51:05.680Z,557.00
2022-08-27T04:52:00.697Z,550.00
2022-08-27T04:52:55.711Z,546.00
2022-08-27T04:53:51.060Z,551.00
2022-08-27T04:54:46.306Z,556.00
2022-08-27T04:55:41.561Z,542.00
2022-08-27T04:56:36.921Z,546.00
2022-08-27T04:57:32.067Z,551.00
2022-08-27T04:58:27.383Z,547.00
2022-08-27T04:59:22.741Z,546.00
2022-08-27T05:00:18.036Z,552.00
2022-08-27T05:01:13.303Z,547.00
2022-08-27T05:02:08.555Z,558.00
2022-08-27T05:03:03.816Z,557.00
2022-08-27T05:03:59.094Z,547.00
2022-08-27T05:04:54.574Z,553.00
2022-08-27T05:05:49.776Z,551.00
2022-08-27T05:06:45.293Z,554.00
2022-08-27T05:07:40.564Z,554.00
2022-08-27T05:08:35.686Z,562.00
2022-08-27T05:09:31.015Z,554.00
2022-08-27T05:10:26.316Z,555.00
2022-08-27T05:11:21.612Z,564.00
2022-08-27T05:12:16.994Z,554.00
2022-08-27T05:13:12.298Z,560.00
2022-08-27T05:14:07.600Z,560.00
2022-08-27T05:15:02.907Z,558.00
2022-08-27T05:15:58.271Z,560.00
2022-08-27T05:16:53.673Z,559.00
2022-08-27T05:17:48.867Z,565.00
2022-08-27T05:18:48.069Z,556.00
2022-08-27T05:19:39.720Z,555.00
2022-08-27T05:20:34.819Z,561.00
2022-08-27T05:21:29.910Z,562.00
2022-08-27T05:22:25.067Z,559.00
2022-08-27T05:23:20.146Z,561.00
2022-08-27T05:24:15.221Z,560.00
2022-08-27T05:25:10.390Z,550.00
2022-08-27T05:26:05.436Z,555.00
2022-08-27T05:27:00.540Z,563.00
2022-08-27T05:27:55.574Z,546.00
2022-08-27T05:28:50.574Z,543.00
2022-08-27T05:29:45.676Z,551.00
2022-08-27T05:30:40.821Z,560.00
2022-08-27T05:31:35.876Z,582.00
2022-08-27T05:32:30.791Z,566.00
2022-08-27T05:33:25.808Z,575.00
2022-08-27T05:34:22.286Z,588.00
2022-08-27T05:35:15.930Z,584.00
2022-08-27T05:36:11.025Z,588.00
2022-08-27T05:37:06.100Z,572.00
2022-08-27T05:38:01.101Z,564.00
2022-08-27T05:38:56.186Z,580.00
2022-08-27T05:39:51.190Z,572.00
2022-08-27T05:40:46.205Z,564.00
2022-08-27T05:41:41.314Z,567.00
2022-08-27T05:42:36.327Z,571.00
2022-08-27T05:43:31.668Z,568.00
2022-08-27T05:44:42.576Z,557.00
2022-08-27T05:45:23.553Z,571.00
2022-08-27T05:46:18.746Z,558.00
2022-08-27T05:47:14.148Z,559.00
2022-08-27T05:48:09.733Z,552.00
2022-08-27T05:49:04.656Z,552.00
2022-08-27T05:49:59.674Z,561.00
2022-08-27T05:50:54.724Z,564.00
2022-08-27T05:51:49.727Z,563.00
2022-08-27T05:52:45.082Z,568.00
2022-08-27T05:53:40.093Z,567.00
2022-08-27T05:54:35.265Z,575.00
2022-08-27T05:55:31.754Z,556.00
2022-08-27T05:56:26.747Z,553.00
2022-08-27T05:57:21.769Z,566.00
2022-08-27T05:58:16.991Z,561.00
2022-08-27T05:59:11.810Z,563.00
2022-08-27T06:00:06.822Z,567.00
2022-08-27T06:01:04.213Z,557.00
2022-08-27T06:01:56.921Z,559.00
2022-08-27T06:02:52.007Z,559.00
2022-08-27T06:03:47.021Z,570.00
2022-08-27T06:04:42.059Z,570.00
2022-08-27T06:05:37.209Z,566.00
2022-08-27T06:06:32.220Z,568.00
2022-08-27T06:07:27.669Z,559.00
2022-08-27T06:08:23.245Z,566.00
2022-08-27T06:09:18.683Z,563.00
2022-08-27T06:10:14.145Z,565.00
2022-08-27T06:11:09.719Z,570.00
2022-08-27T06:12:05.129Z,564.00
2022-08-27T06:13:00.607Z,563.00
2022-08-27T06:13:56.158Z,560.00
2022-08-27T06:14:51.580Z,548.00
2022-08-27T06:15:47.070Z,564.00
2022-08-27T06:16:42.665Z,572.00
2022-08-27T06:17:38.111Z,599.00
2022-08-27T06:18:37.326Z,604.00
2022-08-27T06:19:32.647Z,581.00
2022-08-27T06:20:28.068Z,582.00
2022-08-27T06:21:24.764Z,599.00
2022-08-27T06:22:18.930Z,580.00
2022-08-27T06:23:14.348Z,573.00
2022-08-27T06:24:09.786Z,563.00
2022-08-27T06:25:05.238Z,569.00
2022-08-27T06:26:00.823Z,566.00
2022-08-27T06:26:56.134Z,553.00
2022-08-27T06:27:51.570Z,552.00
2022-08-27T06:28:47.018Z,574.00
2022-08-27T06:29:42.434Z,569.00
2022-08-27T06:30:38.072Z,555.00
2022-08-27T06:31:33.326Z,565.00
2022-08-27T06:32:28.323Z,568.00
2022-08-27T06:33:23.332Z,556.00
2022-08-27T06:34:18.399Z,559.00
2022-08-27T06:35:13.409Z,566.00
2022-08-27T06:36:08.452Z,559.00
2022-08-27T06:37:03.523Z,556.00
2022-08-27T06:37:58.526Z,559.00
2022-08-27T06:38:53.579Z,564.00
2022-08-27T06:39:50.537Z,538.00
2022-08-27T06:40:45.590Z,544.00
2022-08-27T06:41:40.680Z,546.00
2022-08-27T06:42:35.729Z,558.00
2022-08-27T06:43:30.722Z,533.00
2022-08-27T06:44:25.797Z,526.00
2022-08-27T06:45:20.789Z,533.00
2022-08-27T06:46:15.931Z,545.00
2022-08-27T06:47:10.953Z,521.00
2022-08-27T06:48:06.250Z,535.00
2022-08-27T06:49:02.535Z,542.00
2022-08-27T06:49:57.978Z,529.00
2022-08-27T06:50:53.836Z,513.00
2022-08-27T06:51:49.289Z,522.00
2022-08-27T06:52:44.720Z,523.00
2022-08-27T06:53:40.454Z,523.00
2022-08-27T06:54:35.875Z,522.00
2022-08-27T06:55:36.693Z,515.00
2022-08-27T06:56:28.098Z,523.00
2022-08-27T06:57:22.955Z,514.00
2022-08-27T06:58:18.400Z,514.00
2022-08-27T06:59:14.097Z,515.00
2022-08-27T07:00:09.527Z,519.00
2022-08-27T07:01:05.024Z,517.00
2022-08-27T07:02:00.742Z,513.00
2022-08-27T07:02:56.260Z,507.00
2022-08-27T07:03:51.580Z,508.00
2022-08-27T07:04:48.243Z,509.00
2022-08-27T07:05:43.705Z,502.00
2022-08-27T07:06:39.445Z,503.00
2022-08-27T07:07:42.006Z,510.00
2022-08-27T07:08:31.730Z,500.00
2022-08-27T07:09:26.194Z,500.00
2022-08-27T07:10:22.035Z,506.00
2022-08-27T07:11:17.594Z,492.00
2022-08-27T07:12:13.021Z,508.00
2022-08-27T07:13:08.773Z,507.00
2022-08-27T07:14:04.210Z,504.00
2022-08-27T07:15:00.042Z,504.00
2022-08-27T07:15:55.431Z,500.00
2022-08-27T07:16:50.771Z,497.00
2022-08-27T07:17:46.471Z,502.00
2022-08-27T07:18:41.885Z,501.00
2022-08-27T07:19:37.354Z,495.00
2022-08-27T07:20:32.345Z,500.00
2022-08-27T07:21:27.373Z,505.00
2022-08-27T07:22:22.421Z,506.00
2022-08-27T07:23:17.458Z,502.00
2022-08-27T07:24:12.487Z,500.00
2022-08-27T07:25:07.538Z,498.00
2022-08-27T07:26:02.592Z,504.00
2022-08-27T07:26:57.741Z,505.00
2022-08-27T07:27:52.809Z,511.00
2022-08-27T07:28:47.852Z,507.00
2022-08-27T07:29:42.911Z,511.00
2022-08-27T07:30:40.215Z,510.00
2022-08-27T07:31:34.977Z,512.00
2022-08-27T07:32:30.521Z,509.00
2022-08-27T07:33:25.117Z,510.00
2022-08-27T07:34:20.137Z,507.00
2022-08-27T07:35:15.199Z,501.00
2022-08-27T07:36:10.361Z,516.00
2022-08-27T07:37:05.298Z,502.00
2022-08-27T07:38:00.311Z,500.00
2022-08-27T07:38:59.171Z,505.00
2022-08-27T07:39:52.828Z,516.00
2022-08-27T07:40:47.480Z,501.00
2022-08-27T07:41:42.928Z,504.00
2022-08-27T07:42:38.500Z,514.00
2022-08-27T07:43:34.104Z,503.00
2022-08-27T07:44:34.407Z,503.00
2022-08-27T07:45:26.274Z,499.00
2022-08-27T07:46:20.793Z,503.00
2022-08-27T07:47:16.274Z,504.00
2022-08-27T07:48:12.541Z,512.00
2022-08-27T07:49:07.895Z,511.00
2022-08-27T07:50:03.345Z,511.00
2022-08-27T07:50:59.635Z,508.00
2022-08-27T07:51:55.074Z,507.00
2022-08-27T07:52:50.980Z,503.00
2022-08-27T07:53:46.309Z,503.00
2022-08-27T07:54:41.744Z,506.00
2022-08-27T07:55:37.194Z,501.00
2022-08-27T07:56:32.690Z,494.00
2022-08-27T07:57:28.124Z,496.00
2022-08-27T07:58:23.158Z,514.00
2022-08-27T07:59:18.225Z,509.00
2022-08-27T08:00:13.323Z,496.00
2022-08-27T08:01:08.461Z,506.00
2022-08-27T08:02:03.428Z,527.00
2022-08-27T08:02:58.503Z,509.00
2022-08-27T08:03:53.485Z,510.00
2022-08-27T08:04:48.512Z,517.00
2022-08-27T08:05:43.537Z,529.00
2022-08-27T08:06:38.599Z,534.00
2022-08-27T08:07:34.889Z,507.00
2022-08-27T08:08:30.349Z,518.00
2022-08-27T08:09:25.815Z,518.00
2022-08-27T08:10:21.563Z,512.00
2022-08-27T08:11:17.061Z,532.00
2022-08-27T08:12:12.478Z,532.00
2022-08-27T08:13:08.224Z,524.00
2022-08-27T08:14:03.645Z,521.00
2022-08-27T08:14:59.499Z,512.00
2022-08-27T08:15:54.820Z,525.00
2022-08-27T08:16:50.371Z,527.00
2022-08-27T08:17:45.981Z,515.00
2022-08-27T08:18:41.390Z,513.00
2022-08-27T08:19:36.824Z,517.00
2022-08-27T08:20:56.572Z,526.00
2022-08-27T08:21:29.584Z,512.00
2022-08-27T08:22:24.384Z,518.00
2022-08-27T08:23:19.827Z,530.00
2022-08-27T08:24:15.376Z,510.00
2022-08-27T08:25:12.891Z,520.00
2022-08-27T08:26:06.501Z,505.00
2022-08-27T08:27:06.840Z,510.00
2022-08-27T08:27:58.698Z,509.00
2022-08-27T08:28:53.514Z,505.00
2022-08-27T08:29:48.947Z,506.00
2022-08-27T08:30:44.813Z,509.00
2022-08-27T08:31:40.148Z,510.00
2022-08-27T08:32:35.656Z,515.00
2022-08-27T08:33:31.600Z,521.00
2022-08-27T08:34:26.970Z,504.00
2022-08-27T08:35:22.402Z,511.00
2022-08-27T08:36:18.696Z,503.00
2022-08-27T08:37:14.136Z,511.00
2022-08-27T08:38:10.127Z,499.00
2022-08-27T08:39:05.386Z,509.00
2022-08-27T08:40:00.888Z,502.00
2022-08-27T08:40:56.593Z,500.00
2022-08-27T08:41:52.052Z,520.00
2022-08-27T08:42:50.674Z,511.00
2022-08-27T08:43:43.240Z,503.00
2022-08-27T08:44:38.951Z,503.00
2022-08-27T08:45:33.991Z,507.00
2022-08-27T08:46:29.116Z,510.00
2022-08-27T08:47:24.102Z,515.00
2022-08-27T08:48:19.168Z,506.00
2022-08-27T08:49:14.198Z,511.00
2022-08-27T08:50:09.307Z,512.00
2022-08-27T08:51:04.340Z,500.00
2022-08-27T08:51:59.436Z,521.00
2022-08-27T08:52:54.452Z,521.00
2022-08-27T08:53:49.467Z,519.00
2022-08-27T08:54:44.647Z,506.00
2022-08-27T08:55:39.705Z,506.00
2022-08-27T08:56:34.783Z,512.00
2022-08-27T08:57:29.825Z,514.00
2022-08-27T08:58:25.273Z,519.00
2022-08-27T08:59:20.700Z,512.00
2022-08-27T09:00:16.812Z,510.00
2022-08-27T09:01:12.152Z,497.00
2022-08-27T09:02:12.664Z,499.00
2022-08-27T09:03:04.314Z,507.00
2022-08-27T09:03:59.178Z,496.00
2022-08-27T09:04:54.556Z,498.00
2022-08-27T09:05:50.406Z,504.00
2022-08-27T09:06:45.748Z,492.00
2022-08-27T09:07:41.221Z,496.00
2022-08-27T09:08:41.401Z,497.00
2022-08-27T09:09:32.421Z,489.00
2022-08-27T09:10:27.870Z,492.00
2022-08-27T09:11:23.454Z,506.00
2022-08-27T09:12:19.192Z,503.00
2022-08-27T09:13:14.662Z,503.00
2022-08-27T09:14:13.319Z,498.00
2022-08-27T09:15:05.958Z,505.00
2022-08-27T09:16:01.407Z,496.00
2022-08-27T09:16:57.532Z,492.00
2022-08-27T09:17:52.651Z,495.00
2022-08-27T09:18:52.440Z,515.00
2022-08-27T09:19:44.062Z,504.00
2022-08-27T09:20:39.492Z,502.00
2022-08-27T09:21:34.883Z,495.00
2022-08-27T09:22:29.950Z,494.00
2022-08-27T09:23:24.985Z,496.00
2022-08-27T09:24:20.043Z,500.00
2022-08-27T09:25:20.233Z,502.00
2022-08-27T09:26:12.093Z,509.00
2022-08-27T09:27:06.580Z,505.00
2022-08-27T09:28:02.010Z,501.00
2022-08-27T09:28:57.605Z,494.00
2022-08-27T09:29:54.644Z,493.00
2022-08-27T09:30:50.119Z,500.00
2022-08-27T09:31:45.562Z,495.00
2022-08-27T09:32:41.008Z,496.00
2022-08-27T09:33:44.628Z,494.00
2022-08-27T09:34:34.112Z,498.00
2022-08-27T09:35:28.594Z,492.00
2022-08-27T09:36:24.344Z,491.00
2022-08-27T09:37:19.765Z,492.00
2022-08-27T09:38:15.186Z,487.00
2022-08-27T09:39:10.597Z,490.00
2022-08-27T09:40:05.671Z,491.00
2022-08-27T09:41:01.658Z,492.00
2022-08-27T09:41:55.777Z,493.00
2022-08-27T09:42:50.792Z,493.00
2022-08-27T09:43:45.823Z,490.00
2022-08-27T09:44:45.060Z,486.00
2022-08-27T09:45:40.096Z,495.00
2022-08-27T09:46:35.154Z,493.00
2022-08-27T09:47:30.144Z,490.00
2022-08-27T09:48:25.215Z,488.00
2022-08-27T09:49:20.296Z,495.00
2022-08-27T09:50:15.443Z,488.00
2022-08-27T09:51:10.786Z,496.00
2022-08-27T09:52:06.574Z,494.00
2022-08-27T09:53:02.065Z,504.00
2022-08-27T09:53:57.565Z,499.00
2022-08-27T09:54:53.356Z,503.00
2022-08-27T09:55:48.873Z,495.00
2022-08-27T09:56:44.553Z,494.00
2022-08-27T09:57:40.042Z,496.00
2022-08-27T09:58:35.529Z,490.00
2022-08-27T09:59:31.480Z,497.00
2022-08-27T10:00:26.972Z,494.00
2022-08-27T10:01:22.526Z,491.00
2022-08-27T10:02:18.744Z,491.00
2022-08-27T10:03:14.281Z,499.00
2022-08-27T10:04:10.210Z,498.00
2022-08-27T10:05:05.499Z,489.00
2022-08-27T10:06:00.990Z,489.00
2022-08-27T10:06:56.761Z,493.00
2022-08-27T10:07:52.169Z,487.00
2022-08-27T10:08:48.003Z,491.00
2022-08-27T10:09:43.338Z,483.00
2022-08-27T10:10:40.571Z,485.00
2022-08-27T10:11:34.516Z,485.00
2022-08-27T10:12:29.996Z,488.00
2022-08-27T10:13:25.269Z,491.00
2022-08-27T10:14:21.785Z,492.00
2022-08-27T10:15:17.380Z,488.00
2022-08-27T10:16:13.254Z,491.00
2022-08-27T10:17:08.688Z,496.00
2022-08-27T10:18:04.216Z,489.00
2022-08-27T10:19:00.381Z,488.00
2022-08-27T10:19:55.397Z,488.00
2022-08-27T10:20:51.222Z,488.00
2022-08-27T10:21:46.724Z,486.00
2022-08-27T10:22:41.993Z,492.00
2022-08-27T10:23:37.809Z,493.00
2022-08-27T10:24:33.207Z,489.00
2022-08-27T10:25:28.621Z,486.00
2022-08-27T10:26:24.916Z,482.00
2022-08-27T10:27:20.499Z,489.00
2022-08-27T10:28:16.343Z,488.00
2022-08-27T10:29:11.855Z,488.00
2022-08-27T10:30:07.246Z,482.00
2022-08-27T10:31:02.987Z,481.00
2022-08-27T10:31:58.585Z,483.00
2022-08-27T10:32:55.109Z,483.00
2022-08-27T10:33:49.644Z,479.00
2022-08-27T10:34:45.136Z,485.00
2022-08-27T10:35:46.839Z,502.00
2022-08-27T10:36:37.797Z,488.00
2022-08-27T10:37:36.788Z,483.00
2022-08-27T10:38:28.346Z,481.00
2022-08-27T10:39:22.664Z,482.00
2022-08-27T10:40:17.501Z,483.00
2022-08-27T10:41:12.441Z,485.00
2022-08-27T10:42:07.471Z,488.00
2022-08-27T10:43:02.699Z,491.00
2022-08-27T10:43:57.564Z,489.00
2022-08-27T10:44:52.629Z,492.00
2022-08-27T10:45:47.725Z,483.00
2022-08-27T10:46:49.984Z,485.00
2022-08-27T10:47:38.920Z,480.00
2022-08-27T10:48:35.497Z,488.00
2022-08-27T10:49:30.547Z,486.00
2022-08-27T10:50:25.635Z,489.00
2022-08-27T10:51:20.998Z,492.00
2022-08-27T10:52:16.451Z,488.00
2022-08-27T10:53:12.208Z,491.00
2022-08-27T10:54:07.677Z,487.00
2022-08-27T10:55:03.175Z,482.00
2022-08-27T10:55:58.852Z,480.00
2022-08-27T10:57:08.367Z,476.00
2022-08-27T10:57:58.872Z,486.00
2022-08-27T10:58:46.567Z,480.00
2022-08-27T10:59:42.397Z,485.00
2022-08-27T11:00:37.967Z,494.00
2022-08-27T11:01:33.720Z,487.00
2022-08-27T11:02:29.194Z,481.00
2022-08-27T11:03:24.498Z,490.00
2022-08-27T11:04:20.257Z,493.00
2022-08-27T11:05:15.764Z,489.00
2022-08-27T11:06:11.166Z,493.00
2022-08-27T11:07:06.587Z,492.00
2022-08-27T11:08:02.645Z,493.00
2022-08-27T11:08:58.223Z,489.00
2022-08-27T11:09:56.822Z,493.00
2022-08-27T11:10:49.543Z,494.00
2022-08-27T11:12:13.421Z,492.00
2022-08-27T11:12:41.464Z,490.00
2022-08-27T11:13:36.464Z,487.00
2022-08-27T11:14:31.922Z,482.00
2022-08-27T11:15:27.373Z,491.00
2022-08-27T11:16:23.705Z,487.00
2022-08-27T11:17:19.198Z,492.00
2022-08-27T11:18:15.092Z,495.00
2022-08-27T11:19:10.526Z,502.00
2022-08-27T11:20:05.984Z,503.00
2022-08-27T11:21:01.731Z,505.00
2022-08-27T11:21:57.201Z,503.00
2022-08-27T11:22:53.122Z,484.00
2022-08-27T11:23:48.458Z,488.00
2022-08-27T11:24:44.046Z,487.00
2022-08-27T11:25:39.635Z,490.00
2022-08-27T11:26:35.114Z,488.00
2022-08-27T11:27:30.588Z,490.00
2022-08-27T11:28:30.155Z,509.00
2022-08-27T11:29:22.439Z,505.00
2022-08-27T11:30:18.120Z,490.00
2022-08-27T11:31:13.624Z,470.00